createdAt,value
2022-09-09T00:00:58.312Z,0.60
2022-09-09T00:03:52.405Z,0.80
2022-09-09T00:06:47.958Z,0.57
2022-09-09T00:09:46.049Z,1.43
2022-09-09T00:12:41.694Z,0.83
2022-09-09T00:15:38.756Z,0.80
2022-09-09T00:18:47.339Z,0.80
2022-09-09T00:21:38.165Z,0.70
2022-09-09T00:24:36.294Z,0.70
2022-09-09T00:27:35.010Z,0.53
2022-09-09T00:30:26.097Z,0.70
2022-09-09T00:33:16.991Z,0.70
2022-09-09T00:36:14.737Z,0.83
2022-09-09T00:39:04.300Z,0.80
2022-09-09T00:42:15.349Z,0.87
2022-09-09T00:45:25.941Z,1.10
2022-09-09T00:48:14.475Z,0.60
2022-09-09T00:51:12.434Z,0.80
2022-09-09T00:54:28.635Z,0.80
2022-09-09T00:57:29.303Z,0.90
2022-09-09T01:00:24.882Z,1.00
2022-09-09T01:03:29.547Z,0.73
2022-09-09T01:06:32.017Z,0.70
2022-09-09T01:09:26.802Z,0.63
2022-09-09T01:12:19.235Z,0.57
2022-09-09T01:15:15.371Z,0.60
2022-09-09T01:18:13.565Z,0.60
2022-09-09T01:21:15.982Z,0.97
2022-09-09T01:24:23.931Z,0.87
2022-09-09T01:27:38.855Z,1.10
2022-09-09T01:30:27.527Z,1.30
2022-09-09T01:33:19.882Z,1.30
2022-09-09T01:36:12.886Z,1.53
2022-09-09T01:39:07.910Z,1.50
2022-09-09T01:41:58.383Z,1.10
2022-09-09T01:44:47.872Z,1.07
2022-09-09T01:47:36.900Z,0.50
2022-09-09T01:50:36.155Z,0.70
2022-09-09T01:53:25.406Z,0.80
2022-09-09T01:56:28.156Z,0.80
2022-09-09T01:59:42.144Z,0.80
2022-09-09T02:02:38.470Z,1.07
2022-09-09T02:05:40.657Z,0.90
2022-09-09T02:08:44.761Z,0.90
2022-09-09T02:11:33.910Z,1.10
2022-09-09T02:14:33.398Z,0.90
2022-09-09T02:17:27.914Z,1.20
2022-09-09T02:20:25.350Z,0.80
2022-09-09T02:23:20.365Z,0.80
2022-09-09T02:26:14.422Z,0.70
2022-09-09T02:29:05.885Z,0.80
2022-09-09T02:31:56.214Z,0.80
2022-09-09T02:34:52.902Z,0.63
2022-09-09T02:37:47.122Z,0.70
2022-09-09T02:40:36.327Z,0.70
2022-09-09T02:43:26.148Z,0.77
2022-09-09T02:46:34.841Z,0.77
2022-09-09T02:49:30.997Z,0.87
2022-09-09T02:52:25.325Z,0.70
2022-09-09T02:55:23.796Z,0.73
2022-09-09T02:58:18.027Z,0.60
2022-09-09T03:01:13.853Z,1.00
2022-09-09T03:04:03.107Z,0.70
2022-09-09T03:06:51.559Z,0.70
2022-09-09T03:09:41.900Z,0.70
2022-09-09T03:12:31.552Z,0.70
2022-09-09T03:15:20.210Z,0.70
2022-09-09T03:18:08.324Z,0.77
2022-09-09T03:20:56.479Z,0.83
2022-09-09T03:23:45.983Z,0.80
2022-09-09T03:26:34.018Z,0.60
2022-09-09T03:29:23.777Z,0.67
2022-09-09T03:32:18.597Z,0.90
2022-09-09T03:35:07.723Z,0.97
2022-09-09T03:37:56.109Z,0.83
2022-09-09T03:40:52.425Z,0.87
2022-09-09T03:43:40.631Z,0.80
2022-09-09T03:46:29.939Z,0.80
2022-09-09T03:49:17.840Z,0.70
2022-09-09T03:52:06.073Z,0.60
2022-09-09T03:54:54.380Z,1.03
2022-09-09T03:57:42.806Z,0.70
2022-09-09T04:00:32.241Z,0.70
2022-09-09T04:03:25.829Z,0.80
2022-09-09T04:06:16.477Z,0.70
2022-09-09T04:09:07.499Z,0.70
2022-09-09T04:11:56.512Z,0.77
2022-09-09T04:14:44.686Z,0.60
2022-09-09T04:17:33.970Z,0.90
2022-09-09T04:20:23.202Z,0.63
2022-09-09T04:23:11.122Z,0.70
2022-09-09T04:26:13.514Z,0.70
2022-09-09T04:29:05.944Z,0.50
2022-09-09T04:31:54.360Z,0.40
2022-09-09T04:34:42.911Z,0.50
2022-09-09T04:37:32.496Z,0.60
2022-09-09T04:40:22.803Z,0.60
2022-09-09T04:43:14.351Z,0.60
2022-09-09T04:46:03.646Z,0.60
2022-09-09T04:48:52.132Z,0.70
2022-09-09T04:51:40.230Z,1.33
2022-09-09T04:54:29.423Z,0.43
2022-09-09T04:57:18.915Z,0.50
2022-09-09T05:00:10.468Z,0.40
2022-09-09T05:03:00.145Z,0.60
2022-09-09T05:05:48.239Z,0.40
2022-09-09T05:08:36.557Z,0.40
2022-09-09T05:11:27.889Z,0.50
2022-09-09T05:14:20.350Z,0.60
2022-09-09T05:17:07.766Z,0.80
2022-09-09T05:19:57.936Z,0.50
2022-09-09T05:22:46.025Z,0.40
2022-09-09T05:25:33.386Z,0.60
2022-09-09T05:28:22.146Z,0.60
2022-09-09T05:31:13.678Z,0.60
2022-09-09T05:34:01.615Z,0.83
2022-09-09T05:36:49.117Z,0.80
2022-09-09T05:39:38.878Z,0.50
2022-09-09T05:42:27.244Z,0.60
2022-09-09T05:45:16.581Z,0.47
2022-09-09T05:48:04.276Z,0.47
2022-09-09T05:50:56.210Z,0.50
2022-09-09T05:53:44.792Z,0.43
2022-09-09T05:56:33.477Z,0.60
2022-09-09T05:59:21.721Z,0.57
2022-09-09T06:02:13.653Z,0.60
2022-09-09T06:05:00.930Z,0.50
2022-09-09T06:07:49.380Z,0.60
2022-09-09T06:10:37.323Z,0.83
2022-09-09T06:13:25.099Z,0.60
2022-09-09T06:16:13.852Z,0.70
2022-09-09T06:19:05.504Z,0.60
2022-09-09T06:21:53.328Z,0.70
2022-09-09T06:24:40.736Z,0.90
2022-09-09T06:27:29.798Z,0.50
2022-09-09T06:30:18.308Z,0.80
2022-09-09T06:33:06.466Z,0.43
2022-09-09T06:35:58.096Z,0.63
2022-09-09T06:38:46.906Z,0.87
2022-09-09T06:41:35.841Z,0.57
2022-09-09T06:44:24.372Z,0.50
2022-09-09T06:47:12.041Z,0.57
2022-09-09T06:50:01.113Z,0.77
2022-09-09T06:52:50.919Z,0.70
2022-09-09T06:55:41.327Z,0.80
2022-09-09T06:58:29.784Z,1.00
2022-09-09T07:01:21.137Z,0.60
2022-09-09T07:04:09.994Z,0.60
2022-09-09T07:06:57.961Z,0.87
2022-09-09T07:09:48.095Z,0.97
2022-09-09T07:12:35.713Z,0.80
2022-09-09T07:15:23.917Z,0.80
2022-09-09T07:18:12.082Z,0.80
2022-09-09T07:20:59.971Z,0.77
2022-09-09T07:23:47.988Z,0.77
2022-09-09T07:26:37.136Z,1.20
2022-09-09T07:29:24.268Z,0.70
2022-09-09T07:32:12.410Z,0.70
2022-09-09T07:35:00.958Z,0.80
2022-09-09T07:37:51.098Z,0.70
2022-09-09T07:40:40.711Z,0.77
2022-09-09T07:43:30.119Z,0.80
2022-09-09T07:46:21.088Z,0.83
2022-09-09T07:49:09.515Z,1.07
2022-09-09T07:51:57.510Z,0.97
2022-09-09T07:54:46.651Z,1.00
2022-09-09T07:57:34.875Z,1.10
2022-09-09T08:00:24.963Z,0.77
2022-09-09T08:03:16.709Z,0.93
2022-09-09T08:06:05.524Z,0.70
2022-09-09T08:08:53.944Z,0.77
2022-09-09T08:11:43.135Z,0.63
2022-09-09T08:14:30.887Z,0.67
2022-09-09T08:17:20.575Z,0.80
2022-09-09T08:20:08.933Z,0.90
2022-09-09T08:22:57.907Z,1.17
2022-09-09T08:25:46.569Z,0.90
2022-09-09T08:28:35.190Z,0.93
2022-09-09T08:34:21.537Z,1.10
2022-09-09T08:37:10.990Z,1.03
2022-09-09T08:40:01.275Z,1.23
2022-09-09T08:42:55.096Z,1.00
2022-09-09T08:45:52.916Z,1.00
2022-09-09T08:48:55.138Z,0.93
2022-09-09T08:51:44.441Z,1.23
2022-09-09T08:54:51.585Z,0.90
2022-09-09T08:57:41.261Z,1.00
2022-09-09T09:00:37.510Z,1.00
2022-09-09T09:03:35.507Z,0.80
2022-09-09T09:06:42.229Z,0.80
2022-09-09T09:09:44.081Z,0.93
2022-09-09T09:12:38.118Z,0.93
2022-09-09T09:15:32.084Z,1.10
2022-09-09T09:18:20.769Z,1.00
2022-09-09T09:21:15.643Z,0.83
2022-09-09T09:24:09.167Z,0.90
2022-09-09T09:26:58.645Z,0.87
2022-09-09T09:30:18.080Z,0.83
2022-09-09T09:33:01.626Z,1.17
2022-09-09T09:35:52.168Z,1.10
2022-09-09T09:41:50.646Z,1.17
2022-09-09T09:44:40.340Z,1.10
2022-09-09T09:47:33.702Z,1.27
2022-09-09T09:50:34.024Z,1.03
2022-09-09T09:53:28.023Z,0.90
2022-09-09T09:56:17.396Z,0.83
2022-09-09T09:59:13.141Z,1.10
2022-09-09T10:02:25.772Z,0.97
2022-09-09T10:05:26.914Z,1.00
2022-09-09T10:08:20.750Z,0.90
2022-09-09T10:11:29.508Z,1.33
2022-09-09T10:14:23.520Z,1.33
2022-09-09T10:17:23.075Z,1.17
2022-09-09T10:20:29.604Z,0.90
2022-09-09T10:23:34.684Z,1.00
2022-09-09T10:26:40.247Z,1.20
2022-09-09T10:29:44.979Z,0.80
2022-09-09T10:32:47.545Z,1.07
2022-09-09T10:35:41.781Z,0.90
2022-09-09T10:38:43.409Z,1.20
2022-09-09T10:41:49.639Z,0.77
2022-09-09T10:44:59.780Z,0.93
2022-09-09T10:48:13.826Z,1.00
2022-09-09T10:51:25.528Z,0.80
2022-09-09T10:54:36.011Z,0.60
2022-09-09T10:57:33.162Z,0.70
2022-09-09T11:00:24.194Z,0.70
2022-09-09T11:03:22.493Z,0.60
2022-09-09T11:06:17.251Z,0.50
2022-09-09T11:09:06.228Z,0.80
2022-09-09T11:11:58.254Z,0.90
2022-09-09T11:14:49.688Z,0.80
2022-09-09T11:17:44.879Z,1.00
2022-09-09T11:20:34.211Z,0.90
2022-09-09T11:23:28.828Z,1.03
2022-09-09T11:26:31.241Z,1.00
2022-09-09T11:30:09.808Z,0.90
2022-09-09T11:33:46.601Z,0.90
2022-09-09T11:36:58.394Z,0.60
2022-09-09T11:40:21.981Z,0.80
2022-09-09T11:43:14.701Z,0.87
2022-09-09T11:46:04.873Z,0.60
2022-09-09T11:49:04.154Z,1.00
2022-09-09T11:51:53.223Z,0.70
2022-09-09T11:54:50.130Z,0.83
2022-09-09T11:57:39.000Z,0.80
2022-09-09T12:00:46.633Z,1.03
2022-09-09T12:03:47.088Z,0.90
2022-09-09T12:06:44.255Z,0.80
2022-09-09T12:09:49.517Z,0.90
2022-09-09T12:12:43.158Z,0.82
2022-09-09T12:15:31.911Z,0.77
2022-09-09T12:18:26.267Z,1.00
2022-09-09T12:21:27.670Z,0.87
2022-09-09T12:24:23.179Z,0.90
2022-09-09T12:27:21.878Z,0.80
2022-09-09T12:30:13.455Z,0.93
2022-09-09T12:33:11.098Z,0.83
2022-09-09T12:36:00.544Z,0.93
2022-09-09T12:38:48.871Z,1.27
2022-09-09T12:41:36.365Z,0.90
2022-09-09T12:44:26.906Z,0.90
2022-09-09T12:47:16.075Z,0.97
2022-09-09T12:50:04.166Z,1.60
2022-09-09T12:52:54.937Z,0.90
2022-09-09T12:55:53.101Z,0.70
2022-09-09T12:58:41.299Z,0.70
2022-09-09T13:01:33.284Z,0.70
2022-09-09T13:04:24.023Z,0.60
2022-09-09T13:07:13.203Z,0.43
2022-09-09T13:10:00.769Z,0.77
2022-09-09T13:12:48.929Z,0.40
2022-09-09T13:15:36.685Z,0.70
2022-09-09T13:18:29.391Z,0.60
2022-09-09T13:21:16.888Z,0.70
2022-09-09T13:24:05.322Z,0.80
2022-09-09T13:26:58.610Z,0.60
2022-09-09T13:29:56.614Z,0.70
2022-09-09T13:32:44.432Z,0.50
2022-09-09T13:35:34.168Z,0.47
2022-09-09T13:38:27.074Z,0.60
2022-09-09T13:41:24.605Z,0.73
2022-09-09T13:44:24.291Z,0.97
2022-09-09T13:47:23.690Z,1.33
2022-09-09T13:50:26.581Z,0.70
2022-09-09T13:53:15.151Z,0.90
2022-09-09T13:56:03.398Z,0.30
2022-09-09T13:58:50.869Z,0.70
2022-09-09T14:01:38.600Z,0.70
2022-09-09T14:04:26.003Z,0.80
2022-09-09T14:07:16.711Z,0.63
2022-09-09T14:10:06.459Z,1.10
2022-09-09T14:12:53.892Z,1.00
2022-09-09T14:15:41.226Z,0.70
2022-09-09T14:18:28.517Z,0.70
2022-09-09T14:21:16.626Z,0.97
2022-09-09T14:24:04.687Z,0.70
2022-09-09T14:26:53.745Z,0.73
2022-09-09T14:29:41.028Z,0.80
2022-09-09T14:32:29.056Z,0.73
2022-09-09T14:35:18.284Z,0.60
2022-09-09T14:38:06.485Z,0.60
2022-09-09T14:40:53.721Z,0.60
2022-09-09T14:43:42.469Z,0.60
2022-09-09T14:46:30.628Z,0.63
2022-09-09T14:49:18.064Z,0.80
2022-09-09T14:52:07.225Z,0.60
2022-09-09T14:54:54.823Z,0.70
2022-09-09T14:57:42.281Z,0.67
2022-09-09T15:00:31.649Z,0.60
2022-09-09T15:03:19.072Z,0.60
2022-09-09T15:06:11.415Z,0.70
2022-09-09T15:08:59.877Z,0.47
2022-09-09T15:11:47.385Z,0.90
2022-09-09T15:14:35.124Z,0.80
2022-09-09T15:17:28.190Z,0.60
2022-09-09T15:20:17.664Z,0.70
2022-09-09T15:23:07.005Z,0.70
2022-09-09T15:25:56.097Z,0.60
2022-09-09T15:28:45.525Z,0.40
2022-09-09T15:31:34.200Z,0.40
2022-09-09T15:34:24.042Z,0.50
2022-09-09T15:37:14.024Z,0.57
2022-09-09T15:40:02.197Z,0.70
2022-09-09T15:42:50.137Z,0.50
2022-09-09T15:45:38.052Z,0.50
2022-09-09T15:48:34.374Z,0.60
2022-09-09T15:51:41.712Z,0.50
2022-09-09T15:54:30.040Z,0.30
2022-09-09T15:57:17.525Z,0.43
2022-09-09T16:00:07.993Z,0.30
2022-09-09T16:02:55.313Z,0.50
2022-09-09T16:05:42.709Z,0.70
2022-09-09T16:08:35.482Z,0.47
2022-09-09T16:11:25.695Z,0.90
2022-09-09T16:14:13.150Z,0.50
2022-09-09T16:17:00.338Z,0.50
2022-09-09T16:19:47.847Z,0.50
2022-09-09T16:22:35.350Z,0.40
2022-09-09T16:25:24.211Z,0.47
2022-09-09T16:28:11.798Z,0.50
2022-09-09T16:30:59.995Z,0.60
2022-09-09T16:33:48.634Z,0.30
2022-09-09T16:36:39.882Z,0.33
2022-09-09T16:39:27.270Z,0.40
2022-09-09T16:42:18.038Z,0.50
2022-09-09T16:45:07.817Z,0.40
2022-09-09T16:47:55.584Z,0.30
2022-09-09T16:50:43.260Z,0.30
2022-09-09T16:53:30.942Z,0.33
2022-09-09T16:56:21.360Z,0.40
2022-09-09T16:59:13.107Z,0.60
2022-09-09T17:02:01.530Z,0.40
2022-09-09T17:04:49.343Z,0.40
2022-09-09T17:07:37.068Z,0.47
2022-09-09T17:10:24.557Z,0.40
2022-09-09T17:13:12.563Z,0.40
2022-09-09T17:16:06.061Z,0.30
2022-09-09T17:18:55.161Z,0.40
2022-09-09T17:22:05.904Z,0.40
2022-09-09T17:24:51.020Z,0.23
2022-09-09T17:27:38.562Z,0.30
2022-09-09T17:30:25.914Z,0.30
2022-09-09T17:33:14.822Z,0.57
2022-09-09T17:36:14.389Z,0.40
2022-09-09T17:39:03.413Z,0.50
2022-09-09T17:41:50.832Z,0.50
2022-09-09T17:44:39.897Z,0.40
2022-09-09T17:47:27.676Z,0.60
2022-09-09T17:50:16.822Z,0.40
2022-09-09T17:53:04.300Z,0.43
2022-09-09T17:55:53.098Z,0.63
2022-09-09T17:58:41.661Z,0.60
2022-09-09T18:01:31.955Z,0.40
2022-09-09T18:04:20.740Z,0.60
2022-09-09T18:07:09.803Z,0.50
2022-09-09T18:09:57.085Z,0.40
2022-09-09T18:12:44.611Z,0.47
2022-09-09T18:15:48.659Z,0.50
2022-09-09T18:18:37.710Z,0.60
2022-09-09T18:21:27.666Z,0.60
2022-09-09T18:24:19.380Z,0.50
2022-09-09T18:27:06.909Z,0.77
2022-09-09T18:29:54.247Z,0.50
2022-09-09T18:32:41.426Z,1.00
2022-09-09T18:35:28.931Z,0.90
2022-09-09T18:38:17.661Z,0.70
2022-09-09T18:41:16.960Z,0.80
2022-09-09T18:44:08.309Z,0.80
2022-09-09T18:46:55.956Z,0.67
2022-09-09T18:49:43.622Z,0.70
2022-09-09T18:52:30.901Z,0.80
2022-09-09T18:55:18.559Z,0.60
2022-09-09T18:58:07.209Z,0.67
2022-09-09T19:00:54.862Z,0.60
2022-09-09T19:03:43.191Z,0.67
2022-09-09T19:06:33.125Z,0.70
2022-09-09T19:09:20.766Z,0.50
2022-09-09T19:12:09.066Z,0.70
2022-09-09T19:14:58.204Z,0.50
2022-09-09T19:17:45.523Z,0.70
2022-09-09T19:20:32.828Z,0.53
2022-09-09T19:23:20.255Z,0.37
2022-09-09T19:26:08.956Z,0.43
2022-09-09T19:28:58.586Z,0.33
2022-09-09T19:32:06.577Z,0.57
2022-09-09T19:34:55.972Z,0.47
2022-09-09T19:37:43.422Z,0.30
2022-09-09T19:40:31.809Z,0.57
2022-09-09T19:43:19.345Z,0.87
2022-09-09T19:46:11.585Z,0.70
2022-09-09T19:49:01.853Z,0.60
2022-09-09T19:51:48.970Z,0.60
2022-09-09T19:54:36.410Z,0.67
2022-09-09T19:57:23.994Z,0.40
2022-09-09T20:00:13.023Z,0.47
2022-09-09T20:03:18.164Z,0.57
2022-09-09T20:06:09.794Z,0.47
2022-09-09T20:08:58.313Z,0.50
2022-09-09T20:11:48.111Z,0.40
2022-09-09T20:14:39.353Z,0.33
2022-09-09T20:17:27.509Z,0.50
2022-09-09T20:20:15.088Z,0.60
2022-09-09T20:23:03.791Z,0.77
2022-09-09T20:25:51.344Z,0.60
2022-09-09T20:28:42.314Z,0.43
2022-09-09T20:31:31.407Z,0.60
2022-09-09T20:34:22.954Z,0.50
2022-09-09T20:37:10.666Z,0.53
2022-09-09T20:40:00.246Z,0.70
2022-09-09T20:42:47.817Z,0.50
2022-09-09T20:45:38.820Z,0.50
2022-09-09T20:48:26.579Z,0.60
2022-09-09T20:51:16.297Z,0.83
2022-09-09T20:54:06.495Z,0.80
2022-09-09T20:56:56.195Z,0.63
2022-09-09T20:59:48.090Z,0.57
2022-09-09T21:02:35.673Z,0.60
2022-09-09T21:05:24.226Z,0.43
2022-09-09T21:08:12.125Z,0.40
2022-09-09T21:10:59.844Z,0.33
2022-09-09T21:13:48.636Z,0.43
2022-09-09T21:16:36.276Z,0.60
2022-09-09T21:19:24.308Z,0.50
2022-09-09T21:22:14.195Z,0.40
2022-09-09T21:25:01.768Z,0.60
2022-09-09T21:27:49.078Z,0.70
2022-09-09T21:30:43.949Z,0.40
2022-09-09T21:33:31.761Z,0.60
2022-09-09T21:36:19.291Z,0.53
2022-09-09T21:39:06.533Z,0.60
2022-09-09T21:41:54.659Z,0.77
2022-09-09T21:44:42.094Z,0.50
2022-09-09T21:47:30.697Z,0.50
2022-09-09T21:50:24.501Z,0.57
2022-09-09T21:53:20.324Z,0.50
2022-09-09T21:56:10.906Z,0.50
2022-09-09T21:59:03.716Z,0.50
2022-09-09T22:01:51.243Z,0.50
2022-09-09T22:04:40.366Z,0.50
2022-09-09T22:07:27.836Z,0.40
2022-09-09T22:10:15.303Z,0.50
2022-09-09T22:13:03.057Z,0.30
2022-09-09T22:15:51.058Z,0.40
2022-09-09T22:18:39.305Z,0.43
2022-09-09T22:21:31.192Z,0.50
2022-09-09T22:24:19.294Z,0.40
2022-09-09T22:27:07.219Z,0.30
2022-09-09T22:29:54.794Z,0.30
2022-09-09T22:32:41.853Z,0.40
2022-09-09T22:35:30.058Z,0.50
2022-09-09T22:38:19.166Z,0.40
2022-09-09T22:41:07.621Z,0.50
2022-09-09T22:43:56.096Z,0.70
2022-09-09T22:46:43.904Z,0.47
2022-09-09T22:49:31.738Z,0.70
2022-09-09T22:52:19.323Z,0.50
2022-09-09T22:55:09.962Z,0.60
2022-09-09T22:57:57.396Z,0.83
2022-09-09T23:00:45.249Z,0.60
2022-09-09T23:03:33.202Z,0.50
2022-09-09T23:06:24.012Z,0.50
2022-09-09T23:09:13.791Z,0.57
2022-09-09T23:12:03.780Z,0.57
2022-09-09T23:14:52.051Z,0.43
2022-09-09T23:17:40.997Z,0.40
2022-09-09T23:20:29.518Z,0.47
2022-09-09T23:23:16.871Z,0.57
2022-09-09T23:26:05.583Z,0.53
2022-09-09T23:28:55.370Z,0.40
2022-09-09T23:31:45.342Z,0.60
2022-09-09T23:34:33.046Z,0.50
2022-09-09T23:37:20.527Z,0.50
2022-09-09T23:40:09.368Z,0.53
2022-09-09T23:42:57.041Z,0.60
2022-09-09T23:45:47.177Z,0.50
2022-09-09T23:48:35.927Z,0.50
2022-09-09T23:51:25.235Z,0.73
2022-09-09T23:54:12.672Z,0.40
2022-09-09T23:57:00.239Z,0.60
2022-09-09T23:59:47.620Z,0.63
